createdAt,value
2019-01-11T00:00:22.396Z,78.40
2019-01-11T00:02:55.613Z,78.10
2019-01-11T00:05:27.250Z,77.67
2019-01-11T00:07:58.839Z,77.98
2019-01-11T00:10:30.453Z,77.84
2019-01-11T00:13:02.128Z,78.02
2019-01-11T00:15:33.930Z,77.48
2019-01-11T00:18:05.664Z,78.63
2019-01-11T00:20:37.300Z,78.39
2019-01-11T00:23:09.016Z,78.54
2019-01-11T00:25:40.662Z,77.97
2019-01-11T00:28:12.368Z,78.10
2019-01-11T00:30:43.989Z,78.07
2019-01-11T00:33:15.600Z,78.35
2019-01-11T00:35:47.232Z,78.34
2019-01-11T00:38:19.101Z,78.46
2019-01-11T00:40:50.717Z,77.62
2019-01-11T00:43:22.301Z,77.01
2019-01-11T00:45:54.274Z,78.21
2019-01-11T00:48:25.921Z,78.65
2019-01-11T00:50:57.584Z,78.25
2019-01-11T00:53:29.163Z,78.30
2019-01-11T00:56:00.705Z,78.32
2019-01-11T00:58:32.284Z,79.03
2019-01-11T01:01:03.908Z,78.59
2019-01-11T01:03:35.625Z,79.15
2019-01-11T01:06:07.670Z,78.91
2019-01-11T01:08:39.408Z,80.28
2019-01-11T01:11:11.050Z,79.27
2019-01-11T01:13:42.695Z,78.74
2019-01-11T01:16:14.354Z,79.93
2019-01-11T01:18:45.940Z,79.03
2019-01-11T01:21:17.727Z,79.06
2019-01-11T01:23:49.321Z,78.73
2019-01-11T01:26:20.971Z,79.08
2019-01-11T01:28:52.559Z,79.92
2019-01-11T01:31:24.343Z,79.03
2019-01-11T01:33:56.032Z,79.06
2019-01-11T01:36:27.734Z,80.22
2019-01-11T01:38:59.312Z,79.66
2019-01-11T01:41:30.939Z,79.79
2019-01-11T01:44:02.513Z,79.83
2019-01-11T01:46:34.128Z,79.61
2019-01-11T01:49:05.819Z,80.00
2019-01-11T01:51:37.488Z,79.80
2019-01-11T01:54:09.105Z,80.68
2019-01-11T01:56:40.811Z,79.81
2019-01-11T01:59:12.797Z,80.46
2019-01-11T02:01:45.588Z,79.94
2019-01-11T02:04:17.183Z,79.54
2019-01-11T02:06:48.872Z,79.95
2019-01-11T02:09:20.507Z,79.72
2019-01-11T02:11:52.077Z,80.75
2019-01-11T02:14:23.733Z,80.24
2019-01-11T02:16:55.396Z,79.43
2019-01-11T02:19:32.746Z,79.25
2019-01-11T02:22:00.424Z,80.55
2019-01-11T02:24:32.028Z,79.78
2019-01-11T02:27:03.642Z,80.92
2019-01-11T02:29:35.226Z,80.86
2019-01-11T02:32:06.916Z,81.45
2019-01-11T02:34:38.530Z,80.67
2019-01-11T02:37:10.196Z,79.67
2019-01-11T02:39:41.810Z,80.87
2019-01-11T02:42:13.515Z,80.59
2019-01-11T02:44:45.117Z,80.45
2019-01-11T02:47:17.862Z,80.00
2019-01-11T02:49:49.463Z,79.93
2019-01-11T02:52:22.138Z,80.78
2019-01-11T02:54:53.753Z,80.45
2019-01-11T02:57:25.344Z,81.29
2019-01-11T02:59:57.143Z,81.49
2019-01-11T03:02:33.180Z,80.96
2019-01-11T03:05:05.469Z,81.19
2019-01-11T03:07:37.133Z,80.52
2019-01-11T03:10:14.102Z,79.85
2019-01-11T03:12:45.699Z,80.14
2019-01-11T03:15:17.780Z,79.97
2019-01-11T03:17:49.406Z,79.28
2019-01-11T03:20:21.788Z,79.87
2019-01-11T03:22:53.392Z,79.99
2019-01-11T03:25:24.980Z,79.93
2019-01-11T03:27:56.564Z,80.17
2019-01-11T03:30:28.166Z,79.50
2019-01-11T03:32:59.832Z,79.59
2019-01-11T03:35:31.447Z,79.87
2019-01-11T03:38:03.149Z,80.14
2019-01-11T03:40:34.703Z,80.42
2019-01-11T03:43:06.311Z,80.06
2019-01-11T03:45:38.021Z,80.54
2019-01-11T03:48:09.632Z,80.75
2019-01-11T03:50:41.288Z,80.56
2019-01-11T03:53:12.882Z,80.94
2019-01-11T03:55:44.875Z,80.84
2019-01-11T03:58:17.536Z,80.82
2019-01-11T04:00:49.200Z,81.33
2019-01-11T04:03:20.836Z,81.35
2019-01-11T04:05:52.429Z,80.76
2019-01-11T04:08:24.014Z,80.03
2019-01-11T04:10:55.609Z,79.29
2019-01-11T04:13:30.603Z,79.51
2019-01-11T04:16:00.612Z,79.74
2019-01-11T04:18:33.860Z,80.00
2019-01-11T04:21:05.439Z,80.42
2019-01-11T04:23:37.226Z,80.12
2019-01-11T04:26:08.926Z,80.02
2019-01-11T04:28:40.515Z,81.62
2019-01-11T04:31:12.084Z,81.46
2019-01-11T04:33:43.671Z,81.62
2019-01-11T04:36:15.265Z,81.87
2019-01-11T04:38:46.847Z,82.29
2019-01-11T04:41:18.461Z,82.66
2019-01-11T04:43:50.017Z,83.06
2019-01-11T04:46:21.689Z,83.05
2019-01-11T04:48:53.252Z,82.72
2019-01-11T04:51:24.854Z,83.59
2019-01-11T04:53:56.544Z,83.53
2019-01-11T04:56:28.133Z,83.96
2019-01-11T04:58:59.746Z,83.86
2019-01-11T05:01:31.323Z,83.41
2019-01-11T05:04:02.961Z,83.91
2019-01-11T05:06:34.553Z,83.61
2019-01-11T05:09:08.104Z,83.33
2019-01-11T05:11:39.868Z,83.46
2019-01-11T05:14:11.474Z,83.34
2019-01-11T05:16:43.148Z,83.07
2019-01-11T05:19:14.729Z,83.41
2019-01-11T05:21:46.331Z,84.05
2019-01-11T05:24:18.007Z,83.78
2019-01-11T05:26:49.632Z,83.68
2019-01-11T05:29:21.247Z,83.58
2019-01-11T05:31:52.870Z,83.87
2019-01-11T05:34:24.533Z,84.07
2019-01-11T05:36:56.199Z,83.49
2019-01-11T05:39:27.867Z,83.82
2019-01-11T05:41:59.446Z,84.00
2019-01-11T05:44:31.028Z,84.69
2019-01-11T05:47:02.706Z,84.63
2019-01-11T05:49:34.313Z,83.32
2019-01-11T05:52:05.925Z,83.16
2019-01-11T05:54:37.536Z,82.60
2019-01-11T05:57:09.251Z,81.43
2019-01-11T05:59:40.843Z,81.99
2019-01-11T06:02:12.532Z,82.47
2019-01-11T06:04:53.290Z,82.79
2019-01-11T06:07:31.147Z,82.93
2019-01-11T06:10:03.155Z,82.63
2019-01-11T06:12:35.094Z,82.52
2019-01-11T06:15:07.680Z,83.22
2019-01-11T06:17:39.472Z,83.33
2019-01-11T06:20:15.495Z,82.67
2019-01-11T06:22:47.076Z,83.12
2019-01-11T06:25:18.746Z,83.36
2019-01-11T06:27:50.334Z,82.97
2019-01-11T06:30:22.042Z,82.98
2019-01-11T06:32:53.659Z,83.00
2019-01-11T06:35:25.287Z,83.07
2019-01-11T06:37:57.134Z,82.73
2019-01-11T06:40:28.892Z,82.80
2019-01-11T06:43:03.691Z,82.13
2019-01-11T06:45:33.966Z,81.65
2019-01-11T06:48:07.283Z,81.90
2019-01-11T06:50:38.883Z,81.36
2019-01-11T06:53:10.465Z,81.15
2019-01-11T06:55:42.057Z,81.48
2019-01-11T06:58:16.554Z,80.76
2019-01-11T07:00:48.962Z,81.20
2019-01-11T07:03:21.761Z,80.82
2019-01-11T07:05:53.768Z,81.07
2019-01-11T07:08:25.494Z,80.77
2019-01-11T07:10:57.194Z,81.09
2019-01-11T07:13:28.920Z,81.06
2019-01-11T07:16:00.694Z,80.69
2019-01-11T07:18:32.299Z,81.16
2019-01-11T07:21:04.035Z,80.87
2019-01-11T07:23:35.745Z,80.68
2019-01-11T07:26:07.455Z,80.79
2019-01-11T07:28:39.326Z,81.16
2019-01-11T07:31:12.873Z,81.12
2019-01-11T07:33:44.548Z,81.78
2019-01-11T07:36:41.192Z,81.03
2019-01-11T07:39:31.895Z,81.25
2019-01-11T07:42:08.227Z,81.20
2019-01-11T07:44:39.935Z,80.92
2019-01-11T07:47:11.669Z,80.55
2019-01-11T07:49:43.282Z,81.40
2019-01-11T07:52:15.022Z,80.62
2019-01-11T07:54:46.604Z,80.73
2019-01-11T07:57:18.249Z,81.10
2019-01-11T07:59:49.925Z,80.67
2019-01-11T08:02:21.565Z,80.82
2019-01-11T08:04:53.367Z,81.44
2019-01-11T08:07:25.060Z,81.46
2019-01-11T08:09:56.700Z,81.44
2019-01-11T08:12:28.354Z,81.15
2019-01-11T08:14:59.983Z,81.09
2019-01-11T08:17:31.602Z,81.46
2019-01-11T08:20:03.251Z,80.97
2019-01-11T08:22:40.629Z,80.93
2019-01-11T08:25:13.576Z,80.42
2019-01-11T08:27:45.834Z,80.28
2019-01-11T08:30:17.572Z,80.25
2019-01-11T08:32:49.262Z,79.64
2019-01-11T08:35:20.881Z,79.46
2019-01-11T08:37:52.651Z,79.38
2019-01-11T08:40:24.231Z,79.52
2019-01-11T08:42:55.993Z,78.83
2019-01-11T08:45:27.577Z,80.62
2019-01-11T08:47:59.233Z,77.05
2019-01-11T08:50:31.962Z,77.30
2019-01-11T08:53:03.630Z,75.45
2019-01-11T08:55:35.256Z,74.96
2019-01-11T08:58:06.837Z,74.69
2019-01-11T09:00:38.528Z,74.89
2019-01-11T09:03:10.151Z,73.49
2019-01-11T09:05:41.910Z,74.83
2019-01-11T09:08:13.557Z,75.74
2019-01-11T09:10:47.021Z,75.36
2019-01-11T09:13:19.237Z,74.68
2019-01-11T09:15:50.885Z,74.40
2019-01-11T09:18:45.806Z,74.57
2019-01-11T09:21:17.403Z,75.77
2019-01-11T09:23:50.525Z,75.43
2019-01-11T09:26:22.177Z,74.83
2019-01-11T09:28:53.771Z,74.65
2019-01-11T09:31:25.434Z,74.77
2019-01-11T09:33:57.135Z,75.06
2019-01-11T09:36:30.870Z,75.37
2019-01-11T09:39:02.661Z,75.50
2019-01-11T09:41:35.507Z,75.28
2019-01-11T09:48:20.899Z,75.99
2019-01-11T09:50:52.574Z,76.02
2019-01-11T09:53:25.386Z,77.16
2019-01-11T09:55:57.024Z,76.47
2019-01-11T09:58:28.725Z,76.54
2019-01-11T10:01:00.293Z,77.64
2019-01-11T10:03:31.982Z,76.95
2019-01-11T10:06:03.638Z,77.17
2019-01-11T10:08:35.320Z,77.17
2019-01-11T10:11:07.174Z,76.99
2019-01-11T10:13:38.882Z,77.56
2019-01-11T10:16:10.608Z,77.17
2019-01-11T10:18:42.233Z,77.50
2019-01-11T10:21:14.007Z,77.14
2019-01-11T10:23:45.695Z,77.46
2019-01-11T10:26:18.072Z,77.66
2019-01-11T10:28:51.396Z,76.92
2019-01-11T10:31:23.053Z,77.44
2019-01-11T10:33:54.611Z,77.43
2019-01-11T10:36:26.267Z,77.37
2019-01-11T10:38:57.843Z,77.39
2019-01-11T10:41:29.483Z,77.55
2019-01-11T10:44:01.116Z,77.23
2019-01-11T10:46:37.115Z,77.78
2019-01-11T10:49:08.837Z,77.72
2019-01-11T10:51:40.493Z,77.75
2019-01-11T10:54:20.301Z,77.82
2019-01-11T10:56:51.942Z,77.89
2019-01-11T10:59:23.554Z,77.81
2019-01-11T11:01:55.184Z,77.93
2019-01-11T11:04:26.770Z,78.39
2019-01-11T11:06:58.419Z,78.12
2019-01-11T11:09:30.041Z,78.58
2019-01-11T11:12:01.650Z,77.90
2019-01-11T11:14:33.316Z,77.97
2019-01-11T11:17:05.012Z,77.97
2019-01-11T11:19:36.631Z,77.70
2019-01-11T11:22:08.334Z,78.33
2019-01-11T11:24:39.963Z,77.96
2019-01-11T11:27:11.712Z,78.02
2019-01-11T11:29:43.322Z,78.86
2019-01-11T11:32:16.636Z,79.37
2019-01-11T11:34:48.478Z,79.61
2019-01-11T11:37:20.264Z,80.21
2019-01-11T11:39:52.068Z,80.27
2019-01-11T11:42:26.626Z,80.51
2019-01-11T11:44:58.331Z,80.18
2019-01-11T11:47:30.021Z,80.05
2019-01-11T11:50:01.789Z,79.94
2019-01-11T11:52:34.572Z,79.87
2019-01-11T11:55:07.103Z,79.97
2019-01-11T11:57:38.832Z,80.05
2019-01-11T12:00:14.799Z,80.30
2019-01-11T12:02:47.370Z,80.54
2019-01-11T12:05:19.116Z,80.88
2019-01-11T12:07:50.806Z,81.30
2019-01-11T12:10:23.534Z,81.40
2019-01-11T12:12:55.194Z,81.27
2019-01-11T12:15:26.997Z,81.40
2019-01-11T12:17:58.586Z,81.96
2019-01-11T12:20:35.611Z,82.04
2019-01-11T12:23:07.479Z,81.39
2019-01-11T12:25:39.235Z,81.98
2019-01-11T12:28:10.951Z,82.47
2019-01-11T12:30:42.673Z,82.70
2019-01-11T12:33:14.480Z,83.13
2019-01-11T12:35:46.180Z,83.10
2019-01-11T12:38:17.896Z,83.51
2019-01-11T12:40:49.615Z,83.26
2019-01-11T12:43:21.361Z,83.37
2019-01-11T12:45:52.981Z,83.16
2019-01-11T12:48:24.639Z,83.67
2019-01-11T12:50:56.386Z,83.80
2019-01-11T12:53:28.159Z,83.95
2019-01-11T12:56:00.073Z,83.98
2019-01-11T12:58:31.816Z,83.87
2019-01-11T13:01:03.389Z,84.43
2019-01-11T13:03:35.231Z,84.08
2019-01-11T13:06:06.868Z,84.22
2019-01-11T13:08:38.604Z,84.49
2019-01-11T13:11:10.256Z,84.52
2019-01-11T13:13:41.930Z,84.52
2019-01-11T13:16:13.562Z,84.87
2019-01-11T13:18:45.291Z,85.38
2019-01-11T13:21:17.061Z,84.95
2019-01-11T13:23:48.789Z,85.19
2019-01-11T13:26:20.496Z,85.72
2019-01-11T13:28:52.226Z,85.63
2019-01-11T13:31:23.852Z,85.41
2019-01-11T13:33:55.462Z,85.65
2019-01-11T13:36:27.559Z,85.91
2019-01-11T13:38:59.906Z,85.52
2019-01-11T13:41:31.560Z,85.57
2019-01-11T13:44:03.269Z,85.99
2019-01-11T13:46:34.935Z,86.19
2019-01-11T13:49:06.617Z,86.22
2019-01-11T13:51:38.365Z,86.18
2019-01-11T13:54:10.083Z,86.34
2019-01-11T13:56:41.814Z,86.63
2019-01-11T13:59:13.512Z,86.65
2019-01-11T14:01:45.182Z,87.17
2019-01-11T14:04:16.840Z,86.83
2019-01-11T14:06:49.534Z,87.03
2019-01-11T14:09:21.315Z,86.91
2019-01-11T14:11:52.923Z,87.13
2019-01-11T14:14:24.939Z,86.99
2019-01-11T14:16:56.595Z,87.05
2019-01-11T14:19:28.279Z,87.01
2019-01-11T14:21:59.897Z,87.13
2019-01-11T14:24:31.600Z,87.03
2019-01-11T14:27:03.247Z,90.90
2019-01-11T14:29:34.849Z,91.71
2019-01-11T14:32:06.525Z,91.77
2019-01-11T14:34:38.418Z,91.58
2019-01-11T14:37:10.134Z,90.14
2019-01-11T14:39:41.760Z,89.03
2019-01-11T14:42:13.434Z,88.95
2019-01-11T14:44:45.109Z,89.25
2019-01-11T14:47:16.757Z,89.43
2019-01-11T14:49:48.446Z,89.33
2019-01-11T14:52:20.635Z,89.27
2019-01-11T14:54:52.409Z,89.20
2019-01-11T14:57:23.983Z,88.86
2019-01-11T14:59:55.591Z,88.53
2019-01-11T15:02:27.229Z,89.03
2019-01-11T15:04:58.968Z,89.22
2019-01-11T15:07:30.646Z,89.38
2019-01-11T15:10:02.838Z,89.66
2019-01-11T15:12:34.586Z,90.12
2019-01-11T15:15:07.307Z,90.01
2019-01-11T15:17:39.015Z,89.93
2019-01-11T15:20:16.861Z,90.23
2019-01-11T15:22:48.712Z,90.06
2019-01-11T15:25:20.521Z,90.01
2019-01-11T15:27:52.339Z,89.92
2019-01-11T15:30:23.957Z,89.96
2019-01-11T15:32:55.580Z,89.76
2019-01-11T15:35:27.271Z,89.86
2019-01-11T15:37:58.859Z,89.90
2019-01-11T15:40:36.456Z,90.05
2019-01-11T15:43:05.064Z,90.29
2019-01-11T15:45:40.475Z,90.57
2019-01-11T15:48:19.496Z,90.61
2019-01-11T15:50:58.684Z,90.83
2019-01-11T15:53:37.829Z,91.11
2019-01-11T15:56:12.408Z,91.22
2019-01-11T15:58:44.030Z,91.35
2019-01-11T16:01:15.646Z,91.36
2019-01-11T16:03:47.345Z,91.46
2019-01-11T16:06:25.648Z,91.67
2019-01-11T16:10:03.842Z,91.59
2019-01-11T16:13:01.397Z,91.65
2019-01-11T16:16:25.278Z,91.22
2019-01-11T16:18:58.904Z,90.95
2019-01-11T16:21:30.501Z,90.72
2019-01-11T16:24:02.084Z,90.85
2019-01-11T16:26:33.780Z,90.82
2019-01-11T16:29:05.394Z,90.78
2019-01-11T16:31:36.985Z,90.72
2019-01-11T16:34:09.875Z,90.73
2019-01-11T16:36:41.642Z,90.67
2019-01-11T16:39:13.570Z,90.68
2019-01-11T16:41:45.132Z,90.74
2019-01-11T16:44:16.727Z,90.92
2019-01-11T16:46:48.404Z,90.96
2019-01-11T16:49:19.985Z,90.88
2019-01-11T16:51:51.553Z,90.88
2019-01-11T16:54:23.113Z,91.07
2019-01-11T16:56:54.720Z,91.10
2019-01-11T16:59:26.348Z,91.02
2019-01-11T17:01:57.910Z,90.93
2019-01-11T17:04:29.517Z,90.85
2019-01-11T17:07:01.097Z,90.85
2019-01-11T17:09:32.926Z,90.96
2019-01-11T17:12:04.456Z,90.91
2019-01-11T17:14:36.088Z,90.80
2019-01-11T17:17:07.948Z,90.85
2019-01-11T17:19:39.546Z,90.89
2019-01-11T17:22:12.847Z,91.00
2019-01-11T17:24:44.485Z,90.99
2019-01-11T17:27:16.157Z,90.97
2019-01-11T17:29:47.916Z,90.81
2019-01-11T17:32:22.300Z,91.00
2019-01-11T17:34:53.911Z,91.23
2019-01-11T17:37:25.581Z,91.37
2019-01-11T17:39:57.182Z,91.34
2019-01-11T17:42:28.753Z,91.34
2019-01-11T17:45:00.352Z,91.33
2019-01-11T17:47:31.976Z,91.50
2019-01-11T17:50:03.605Z,91.57
2019-01-11T17:52:35.203Z,91.40
2019-01-11T17:55:07.071Z,91.27
2019-01-11T17:57:38.807Z,91.19
2019-01-11T18:00:14.690Z,91.20
2019-01-11T18:02:46.356Z,91.30
2019-01-11T18:05:18.448Z,91.31
2019-01-11T18:07:50.232Z,91.35
2019-01-11T18:10:21.862Z,90.02
2019-01-11T18:12:53.539Z,89.50
2019-01-11T18:15:25.607Z,90.44
2019-01-11T18:18:00.498Z,90.87
2019-01-11T18:20:32.204Z,91.08
2019-01-11T18:23:06.956Z,91.12
2019-01-11T18:25:37.754Z,91.20
2019-01-11T18:28:09.438Z,91.37
2019-01-11T18:30:41.137Z,91.25
2019-01-11T18:33:12.752Z,91.17
2019-01-11T18:35:44.445Z,91.15
2019-01-11T18:38:16.135Z,91.20
2019-01-11T18:40:47.795Z,91.20
2019-01-11T18:43:19.453Z,91.12
2019-01-11T18:45:51.110Z,91.10
2019-01-11T18:48:22.793Z,91.08
2019-01-11T18:50:55.413Z,91.00
2019-01-11T18:53:27.032Z,91.04
2019-01-11T18:56:05.172Z,91.16
2019-01-11T18:58:31.987Z,91.16
2019-01-11T19:01:03.588Z,91.32
2019-01-11T19:03:35.214Z,91.34
2019-01-11T19:06:06.830Z,91.55
2019-01-11T19:08:40.366Z,91.73
2019-01-11T19:11:12.553Z,91.84
2019-01-11T19:13:44.359Z,91.98
2019-01-11T19:16:15.952Z,91.96
2019-01-11T19:18:47.599Z,92.14
2019-01-11T19:21:19.188Z,92.16
2019-01-11T19:23:50.777Z,92.04
2019-01-11T19:26:22.374Z,91.96
2019-01-11T19:28:53.926Z,91.88
2019-01-11T19:31:26.081Z,91.79
2019-01-11T19:33:57.907Z,91.82
2019-01-11T19:36:29.590Z,91.65
2019-01-11T19:39:07.800Z,91.50
2019-01-11T19:41:39.480Z,91.68
2019-01-11T19:44:11.100Z,91.67
2019-01-11T19:46:42.676Z,91.59
2019-01-11T19:49:14.299Z,91.84
2019-01-11T19:51:45.922Z,91.95
2019-01-11T19:54:17.525Z,92.07
2019-01-11T19:56:49.154Z,92.06
2019-01-11T19:59:21.749Z,92.12
2019-01-11T20:01:54.624Z,92.19
2019-01-11T20:04:26.360Z,92.15
2019-01-11T20:06:58.289Z,92.33
2019-01-11T20:09:30.261Z,92.21
2019-01-11T20:12:01.993Z,92.20
2019-01-11T20:14:33.727Z,92.13
2019-01-11T20:17:05.495Z,92.12
2019-01-11T20:19:38.151Z,92.17
2019-01-11T20:22:09.950Z,92.02
2019-01-11T20:24:41.731Z,92.07
2019-01-11T20:27:13.524Z,92.02
2019-01-11T20:29:45.121Z,91.87
2019-01-11T20:32:16.874Z,91.53
2019-01-11T20:34:48.674Z,91.57
2019-01-11T20:37:27.826Z,91.46
2019-01-11T20:39:59.469Z,91.64
2019-01-11T20:42:31.205Z,91.65
2019-01-11T20:45:02.916Z,91.36
2019-01-11T20:47:34.584Z,90.89
2019-01-11T20:50:08.548Z,90.74
2019-01-11T20:52:40.268Z,91.04
2019-01-11T20:55:11.935Z,91.11
2019-01-11T20:57:43.643Z,91.16
2019-01-11T21:00:35.311Z,90.87
2019-01-11T21:03:09.207Z,90.69
2019-01-11T21:05:42.373Z,90.90
2019-01-11T21:08:13.989Z,91.11
2019-01-11T21:10:45.661Z,91.27
2019-01-11T21:13:17.401Z,91.13
2019-01-11T21:15:49.199Z,90.64
2019-01-11T21:18:20.875Z,90.45
2019-01-11T21:20:53.060Z,90.27
2019-01-11T21:23:24.730Z,90.48
2019-01-11T21:25:56.365Z,90.31
2019-01-11T21:28:29.016Z,90.42
2019-01-11T21:31:00.649Z,90.41
2019-01-11T21:33:33.168Z,91.09
2019-01-11T21:36:04.997Z,91.39
2019-01-11T21:38:36.812Z,91.45
2019-01-11T21:41:08.556Z,91.66
2019-01-11T21:43:40.248Z,91.78
2019-01-11T21:46:12.223Z,91.56
2019-01-11T21:48:43.875Z,91.28
2019-01-11T21:51:15.532Z,91.04
2019-01-11T21:53:47.140Z,90.55
2019-01-11T21:56:18.921Z,90.84
2019-01-11T21:58:50.526Z,90.80
2019-01-11T22:01:22.159Z,90.61
2019-01-11T22:03:53.732Z,90.56
2019-01-11T22:06:25.370Z,90.24
2019-01-11T22:08:57.038Z,90.46
2019-01-11T22:11:28.659Z,90.59
2019-01-11T22:14:00.656Z,90.48
2019-01-11T22:16:32.343Z,90.36
2019-01-11T22:19:07.116Z,90.20
2019-01-11T22:21:38.814Z,90.40
2019-01-11T22:24:10.416Z,89.98
2019-01-11T22:26:42.049Z,90.48
2019-01-11T22:29:13.702Z,90.29
2019-01-11T22:31:45.336Z,89.98
2019-01-11T22:34:16.990Z,90.15
2019-01-11T22:36:48.623Z,89.65
2019-01-11T22:39:20.199Z,90.10
2019-01-11T22:41:55.015Z,89.87
2019-01-11T22:44:26.645Z,89.80
2019-01-11T22:46:58.452Z,89.81
2019-01-11T22:49:30.130Z,89.47
2019-01-11T22:52:01.928Z,89.42
2019-01-11T22:54:43.727Z,89.46
2019-01-11T22:57:16.153Z,89.16
2019-01-11T22:59:47.858Z,89.09
2019-01-11T23:02:49.585Z,89.37
2019-01-11T23:05:21.249Z,89.36
2019-01-11T23:08:03.796Z,89.41
2019-01-11T23:11:52.620Z,89.54
2019-01-11T23:14:24.575Z,89.17
2019-01-11T23:21:07.112Z,89.33
2019-01-11T23:23:38.823Z,89.04
2019-01-11T23:26:22.326Z,89.10
2019-01-11T23:36:22.972Z,88.68
2019-01-11T23:39:25.876Z,88.27
2019-01-11T23:42:38.298Z,88.60
2019-01-11T23:45:49.511Z,88.95
2019-01-11T23:51:25.326Z,88.57
2019-01-11T23:53:56.935Z,88.58
2019-01-11T23:56:28.567Z,88.79
2019-01-11T23:59:00.129Z,88.28
